sensor_id;sensor_type;location;lat;lon;timestamp;temperature;humidity
72772;SHT30;60894;42.544;1.516;2022-07-24T00:00:39;22.87;47.34
72772;SHT30;60894;42.544;1.516;2022-07-24T00:03:06;22.82;47.54
72772;SHT30;60894;42.544;1.516;2022-07-24T00:05:34;22.84;47.36
72772;SHT30;60894;42.544;1.516;2022-07-24T00:08:01;22.64;47.94
72772;SHT30;60894;42.544;1.516;2022-07-24T00:10:28;22.55;48.19
72772;SHT30;60894;42.544;1.516;2022-07-24T00:12:56;22.38;48.82
72772;SHT30;60894;42.544;1.516;2022-07-24T00:15:24;22.53;48.19
72772;SHT30;60894;42.544;1.516;2022-07-24T00:17:51;22.64;47.86
72772;SHT30;60894;42.544;1.516;2022-07-24T00:20:18;22.46;48.50
72772;SHT30;60894;42.544;1.516;2022-07-24T00:22:45;22.74;47.78
72772;SHT30;60894;42.544;1.516;2022-07-24T00:25:12;22.66;48.00
72772;SHT30;60894;42.544;1.516;2022-07-24T00:27:39;22.55;48.37
72772;SHT30;60894;42.544;1.516;2022-07-24T00:30:07;22.39;48.75
72772;SHT30;60894;42.544;1.516;2022-07-24T00:32:35;22.38;48.68
72772;SHT30;60894;42.544;1.516;2022-07-24T00:35:02;22.83;46.96
72772;SHT30;60894;42.544;1.516;2022-07-24T00:37:29;22.84;47.88
72772;SHT30;60894;42.544;1.516;2022-07-24T00:39:56;22.92;47.37
72772;SHT30;60894;42.544;1.516;2022-07-24T00:42:23;22.86;47.42
72772;SHT30;60894;42.544;1.516;2022-07-24T00:44:50;22.76;47.77
72772;SHT30;60894;42.544;1.516;2022-07-24T00:47:16;22.64;48.02
72772;SHT30;60894;42.544;1.516;2022-07-24T00:49:44;22.59;48.26
72772;SHT30;60894;42.544;1.516;2022-07-24T00:52:11;22.87;46.96
72772;SHT30;60894;42.544;1.516;2022-07-24T00:54:38;22.62;48.09
72772;SHT30;60894;42.544;1.516;2022-07-24T00:57:05;22.51;48.73
72772;SHT30;60894;42.544;1.516;2022-07-24T00:59:32;22.26;49.07
72772;SHT30;60894;42.544;1.516;2022-07-24T01:01:59;22.41;49.05
72772;SHT30;60894;42.544;1.516;2022-07-24T01:04:26;21.97;50.08
72772;SHT30;60894;42.544;1.516;2022-07-24T01:06:54;22.00;49.91
72772;SHT30;60894;42.544;1.516;2022-07-24T01:09:21;22.04;49.93
72772;SHT30;60894;42.544;1.516;2022-07-24T01:11:49;22.11;49.84
72772;SHT30;60894;42.544;1.516;2022-07-24T01:14:17;21.98;50.21
72772;SHT30;60894;42.544;1.516;2022-07-24T01:16:44;22.25;49.43
72772;SHT30;60894;42.544;1.516;2022-07-24T01:19:11;21.91;50.46
72772;SHT30;60894;42.544;1.516;2022-07-24T01:21:44;22.36;48.81
72772;SHT30;60894;42.544;1.516;2022-07-24T01:24:11;22.32;49.30
72772;SHT30;60894;42.544;1.516;2022-07-24T01:26:37;22.60;47.90
72772;SHT30;60894;42.544;1.516;2022-07-24T01:29:04;22.66;47.76
72772;SHT30;60894;42.544;1.516;2022-07-24T01:31:31;22.97;46.89
72772;SHT30;60894;42.544;1.516;2022-07-24T01:33:58;23.24;46.20
72772;SHT30;60894;42.544;1.516;2022-07-24T01:36:25;23.10;46.67
72772;SHT30;60894;42.544;1.516;2022-07-24T01:38:53;23.18;46.75
72772;SHT30;60894;42.544;1.516;2022-07-24T01:41:20;22.73;47.99
72772;SHT30;60894;42.544;1.516;2022-07-24T01:43:47;22.70;48.08
72772;SHT30;60894;42.544;1.516;2022-07-24T01:46:13;23.01;47.12
72772;SHT30;60894;42.544;1.516;2022-07-24T01:48:42;22.64;48.73
72772;SHT30;60894;42.544;1.516;2022-07-24T01:51:10;22.83;47.67
72772;SHT30;60894;42.544;1.516;2022-07-24T01:53:36;22.63;48.56
72772;SHT30;60894;42.544;1.516;2022-07-24T01:56:05;22.08;50.00
72772;SHT30;60894;42.544;1.516;2022-07-24T01:58:32;22.41;48.59
72772;SHT30;60894;42.544;1.516;2022-07-24T02:00:59;22.32;49.49
72772;SHT30;60894;42.544;1.516;2022-07-24T02:03:26;22.66;47.97
72772;SHT30;60894;42.544;1.516;2022-07-24T02:05:52;22.92;47.19
72772;SHT30;60894;42.544;1.516;2022-07-24T02:08:19;23.24;46.90
72772;SHT30;60894;42.544;1.516;2022-07-24T02:10:46;22.83;48.07
72772;SHT30;60894;42.544;1.516;2022-07-24T02:13:14;23.15;47.24
72772;SHT30;60894;42.544;1.516;2022-07-24T02:15:41;23.24;45.95
72772;SHT30;60894;42.544;1.516;2022-07-24T02:18:08;22.72;48.43
72772;SHT30;60894;42.544;1.516;2022-07-24T02:20:34;22.72;48.22
72772;SHT30;60894;42.544;1.516;2022-07-24T02:23:01;22.89;47.31
72772;SHT30;60894;42.544;1.516;2022-07-24T02:25:28;23.10;46.70
72772;SHT30;60894;42.544;1.516;2022-07-24T02:27:55;23.38;46.15
72772;SHT30;60894;42.544;1.516;2022-07-24T02:30:23;23.00;47.62
72772;SHT30;60894;42.544;1.516;2022-07-24T02:32:51;23.07;47.62
72772;SHT30;60894;42.544;1.516;2022-07-24T02:35:17;23.25;46.64
72772;SHT30;60894;42.544;1.516;2022-07-24T02:37:45;23.06;47.08
72772;SHT30;60894;42.544;1.516;2022-07-24T02:40:13;22.84;47.78
72772;SHT30;60894;42.544;1.516;2022-07-24T02:42:40;23.21;47.20
72772;SHT30;60894;42.544;1.516;2022-07-24T02:45:08;22.69;48.54
72772;SHT30;60894;42.544;1.516;2022-07-24T02:47:45;22.55;48.78
72772;SHT30;60894;42.544;1.516;2022-07-24T02:50:12;21.82;51.19
72772;SHT30;60894;42.544;1.516;2022-07-24T02:52:39;21.91;50.72
72772;SHT30;60894;42.544;1.516;2022-07-24T02:55:07;22.09;50.15
72772;SHT30;60894;42.544;1.516;2022-07-24T02:57:34;21.95;49.96
72772;SHT30;60894;42.544;1.516;2022-07-24T03:00:01;22.21;49.61
72772;SHT30;60894;42.544;1.516;2022-07-24T03:02:27;22.48;48.99
72772;SHT30;60894;42.544;1.516;2022-07-24T03:04:56;22.60;48.77
72772;SHT30;60894;42.544;1.516;2022-07-24T03:07:22;22.76;47.68
72772;SHT30;60894;42.544;1.516;2022-07-24T03:09:49;22.79;48.02
72772;SHT30;60894;42.544;1.516;2022-07-24T03:12:16;22.87;48.01
72772;SHT30;60894;42.544;1.516;2022-07-24T03:14:43;22.90;48.07
72772;SHT30;60894;42.544;1.516;2022-07-24T03:17:10;21.95;50.54
72772;SHT30;60894;42.544;1.516;2022-07-24T03:19:37;21.57;51.80
72772;SHT30;60894;42.544;1.516;2022-07-24T03:22:05;21.78;50.85
72772;SHT30;60894;42.544;1.516;2022-07-24T03:24:32;21.82;50.66
72772;SHT30;60894;42.544;1.516;2022-07-24T03:26:59;22.08;50.16
72772;SHT30;60894;42.544;1.516;2022-07-24T03:29:26;22.48;49.13
72772;SHT30;60894;42.544;1.516;2022-07-24T03:31:53;22.69;48.19
72772;SHT30;60894;42.544;1.516;2022-07-24T03:34:20;22.82;47.63
72772;SHT30;60894;42.544;1.516;2022-07-24T03:36:46;22.83;48.08
72772;SHT30;60894;42.544;1.516;2022-07-24T03:39:15;22.64;48.28
72772;SHT30;60894;42.544;1.516;2022-07-24T03:41:41;22.19;49.85
72772;SHT30;60894;42.544;1.516;2022-07-24T03:44:08;22.49;49.14
72772;SHT30;60894;42.544;1.516;2022-07-24T03:46:35;22.49;48.68
72772;SHT30;60894;42.544;1.516;2022-07-24T03:49:03;22.52;48.01
72772;SHT30;60894;42.544;1.516;2022-07-24T03:51:30;22.08;50.38
72772;SHT30;60894;42.544;1.516;2022-07-24T03:53:56;22.43;48.96
72772;SHT30;60894;42.544;1.516;2022-07-24T03:56:25;22.55;48.58
72772;SHT30;60894;42.544;1.516;2022-07-24T03:58:51;22.01;50.57
72772;SHT30;60894;42.544;1.516;2022-07-24T04:01:19;21.74;51.38
72772;SHT30;60894;42.544;1.516;2022-07-24T04:03:45;21.61;51.51
72772;SHT30;60894;42.544;1.516;2022-07-24T04:06:12;21.23;52.64
72772;SHT30;60894;42.544;1.516;2022-07-24T04:08:39;21.91;50.74
72772;SHT30;60894;42.544;1.516;2022-07-24T04:11:06;22.04;50.30
72772;SHT30;60894;42.544;1.516;2022-07-24T04:13:34;22.28;49.43
72772;SHT30;60894;42.544;1.516;2022-07-24T04:16:01;22.52;48.71
72772;SHT30;60894;42.544;1.516;2022-07-24T04:18:28;21.82;50.90
72772;SHT30;60894;42.544;1.516;2022-07-24T04:20:55;21.57;51.80
72772;SHT30;60894;42.544;1.516;2022-07-24T04:23:21;22.13;49.54
72772;SHT30;60894;42.544;1.516;2022-07-24T04:25:48;21.63;51.56
72772;SHT30;60894;42.544;1.516;2022-07-24T04:28:15;21.57;51.53
72772;SHT30;60894;42.544;1.516;2022-07-24T04:30:44;22.08;49.98
72772;SHT30;60894;42.544;1.516;2022-07-24T04:33:10;22.31;49.01
72772;SHT30;60894;42.544;1.516;2022-07-24T04:35:37;22.36;48.80
72772;SHT30;60894;42.544;1.516;2022-07-24T04:38:04;22.46;48.09
72772;SHT30;60894;42.544;1.516;2022-07-24T04:40:31;22.56;48.53
72772;SHT30;60894;42.544;1.516;2022-07-24T04:42:58;22.66;47.83
72772;SHT30;60894;42.544;1.516;2022-07-24T04:45:24;22.79;47.99
72772;SHT30;60894;42.544;1.516;2022-07-24T04:47:53;22.43;48.79
72772;SHT30;60894;42.544;1.516;2022-07-24T04:50:20;22.53;48.71
72772;SHT30;60894;42.544;1.516;2022-07-24T04:52:46;22.59;48.22
72772;SHT30;60894;42.544;1.516;2022-07-24T04:55:13;22.73;47.82
72772;SHT30;60894;42.544;1.516;2022-07-24T04:57:40;22.83;47.81
72772;SHT30;60894;42.544;1.516;2022-07-24T05:00:10;22.90;47.18
72772;SHT30;60894;42.544;1.516;2022-07-24T05:02:37;22.51;48.43
72772;SHT30;60894;42.544;1.516;2022-07-24T05:05:06;22.62;48.22
72772;SHT30;60894;42.544;1.516;2022-07-24T05:07:33;22.63;47.84
72772;SHT30;60894;42.544;1.516;2022-07-24T05:10:00;22.79;47.78
72772;SHT30;60894;42.544;1.516;2022-07-24T05:12:27;22.96;47.51
72772;SHT30;60894;42.544;1.516;2022-07-24T05:14:53;22.55;48.07
72772;SHT30;60894;42.544;1.516;2022-07-24T05:17:20;22.79;47.75
72772;SHT30;60894;42.544;1.516;2022-07-24T05:19:47;22.67;47.56
72772;SHT30;60894;42.544;1.516;2022-07-24T05:22:15;22.04;49.81
72772;SHT30;60894;42.544;1.516;2022-07-24T05:24:42;21.88;50.06
72772;SHT30;60894;42.544;1.516;2022-07-24T05:27:09;22.35;48.84
72772;SHT30;60894;42.544;1.516;2022-07-24T05:29:36;22.56;48.45
72772;SHT30;60894;42.544;1.516;2022-07-24T05:32:03;22.62;48.04
72772;SHT30;60894;42.544;1.516;2022-07-24T05:34:30;22.73;48.06
72772;SHT30;60894;42.544;1.516;2022-07-24T05:36:57;22.70;47.79
72772;SHT30;60894;42.544;1.516;2022-07-24T05:39:25;22.62;48.00
72772;SHT30;60894;42.544;1.516;2022-07-24T05:41:52;22.49;47.64
72772;SHT30;60894;42.544;1.516;2022-07-24T05:44:19;22.62;48.33
72772;SHT30;60894;42.544;1.516;2022-07-24T05:46:45;22.60;47.50
72772;SHT30;60894;42.544;1.516;2022-07-24T05:49:12;22.72;47.32
72772;SHT30;60894;42.544;1.516;2022-07-24T05:51:39;22.46;47.94
72772;SHT30;60894;42.544;1.516;2022-07-24T05:54:06;22.55;47.92
72772;SHT30;60894;42.544;1.516;2022-07-24T05:56:34;22.69;47.54
72772;SHT30;60894;42.544;1.516;2022-07-24T05:59:01;22.87;47.21
72772;SHT30;60894;42.544;1.516;2022-07-24T06:01:28;22.96;46.58
72772;SHT30;60894;42.544;1.516;2022-07-24T06:03:55;23.10;46.47
72772;SHT30;60894;42.544;1.516;2022-07-24T06:06:22;22.89;46.91
72772;SHT30;60894;42.544;1.516;2022-07-24T06:08:48;23.10;46.72
72772;SHT30;60894;42.544;1.516;2022-07-24T06:11:15;22.84;47.20
72772;SHT30;60894;42.544;1.516;2022-07-24T06:13:45;22.46;48.12
72772;SHT30;60894;42.544;1.516;2022-07-24T06:16:12;22.48;48.04
72772;SHT30;60894;42.544;1.516;2022-07-24T06:18:39;22.74;47.41
72772;SHT30;60894;42.544;1.516;2022-07-24T06:21:06;22.82;47.16
72772;SHT30;60894;42.544;1.516;2022-07-24T06:23:33;22.62;47.84
72772;SHT30;60894;42.544;1.516;2022-07-24T06:26:00;22.76;47.43
72772;SHT30;60894;42.544;1.516;2022-07-24T06:28:27;22.33;48.71
72772;SHT30;60894;42.544;1.516;2022-07-24T06:30:58;22.56;48.09
72772;SHT30;60894;42.544;1.516;2022-07-24T06:33:24;22.11;49.64
72772;SHT30;60894;42.544;1.516;2022-07-24T06:35:51;22.11;49.46
72772;SHT30;60894;42.544;1.516;2022-07-24T06:38:18;22.46;48.59
72772;SHT30;60894;42.544;1.516;2022-07-24T06:40:45;22.42;48.41
72772;SHT30;60894;42.544;1.516;2022-07-24T06:43:12;21.92;49.50
72772;SHT30;60894;42.544;1.516;2022-07-24T06:45:39;22.01;49.27
72772;SHT30;60894;42.544;1.516;2022-07-24T06:48:09;21.95;49.45
72772;SHT30;60894;42.544;1.516;2022-07-24T06:50:36;21.82;49.62
72772;SHT30;60894;42.544;1.516;2022-07-24T06:53:03;21.73;49.93
72772;SHT30;60894;42.544;1.516;2022-07-24T06:55:30;22.06;48.34
72772;SHT30;60894;42.544;1.516;2022-07-24T06:57:57;22.18;48.96
72772;SHT30;60894;42.544;1.516;2022-07-24T07:00:24;22.06;49.15
72772;SHT30;60894;42.544;1.516;2022-07-24T07:02:52;21.92;49.40
72772;SHT30;60894;42.544;1.516;2022-07-24T07:05:20;22.08;48.64
72772;SHT30;60894;42.544;1.516;2022-07-24T07:07:49;22.21;47.80
72772;SHT30;60894;42.544;1.516;2022-07-24T07:10:16;22.31;47.82
72772;SHT30;60894;42.544;1.516;2022-07-24T07:12:42;22.42;46.96
72772;SHT30;60894;42.544;1.516;2022-07-24T07:15:10;22.35;47.75
72772;SHT30;60894;42.544;1.516;2022-07-24T07:17:38;22.48;47.26
72772;SHT30;60894;42.544;1.516;2022-07-24T07:20:06;22.31;46.83
72772;SHT30;60894;42.544;1.516;2022-07-24T07:22:35;22.48;46.60
72772;SHT30;60894;42.544;1.516;2022-07-24T07:25:02;22.73;45.93
72772;SHT30;60894;42.544;1.516;2022-07-24T07:27:31;22.80;45.58
72772;SHT30;60894;42.544;1.516;2022-07-24T07:29:58;22.93;45.69
72772;SHT30;60894;42.544;1.516;2022-07-24T07:32:25;22.93;45.33
72772;SHT30;60894;42.544;1.516;2022-07-24T07:34:52;22.96;45.02
72772;SHT30;60894;42.544;1.516;2022-07-24T07:37:18;22.93;44.89
72772;SHT30;60894;42.544;1.516;2022-07-24T07:39:47;22.99;44.75
72772;SHT30;60894;42.544;1.516;2022-07-24T07:42:14;23.04;45.04
72772;SHT30;60894;42.544;1.516;2022-07-24T07:44:41;23.06;44.37
72772;SHT30;60894;42.544;1.516;2022-07-24T07:47:08;23.01;44.68
72772;SHT30;60894;42.544;1.516;2022-07-24T07:49:35;23.13;44.48
72772;SHT30;60894;42.544;1.516;2022-07-24T07:52:03;23.28;43.77
72772;SHT30;60894;42.544;1.516;2022-07-24T07:54:30;23.30;43.90
72772;SHT30;60894;42.544;1.516;2022-07-24T07:56:58;23.30;43.17
72772;SHT30;60894;42.544;1.516;2022-07-24T07:59:25;23.42;43.96
72772;SHT30;60894;42.544;1.516;2022-07-24T08:01:52;23.52;43.67
72772;SHT30;60894;42.544;1.516;2022-07-24T08:04:19;23.69;43.60
72772;SHT30;60894;42.544;1.516;2022-07-24T08:06:46;23.68;42.89
72772;SHT30;60894;42.544;1.516;2022-07-24T08:09:20;23.72;42.78
72772;SHT30;60894;42.544;1.516;2022-07-24T08:11:47;23.76;43.16
72772;SHT30;60894;42.544;1.516;2022-07-24T08:14:16;23.86;43.53
72772;SHT30;60894;42.544;1.516;2022-07-24T08:16:43;23.93;43.28
72772;SHT30;60894;42.544;1.516;2022-07-24T08:19:10;24.02;43.14
72772;SHT30;60894;42.544;1.516;2022-07-24T08:21:38;24.06;43.17
72772;SHT30;60894;42.544;1.516;2022-07-24T08:24:06;24.20;42.64
72772;SHT30;60894;42.544;1.516;2022-07-24T08:26:33;24.29;42.22
72772;SHT30;60894;42.544;1.516;2022-07-24T08:29:00;24.49;41.57
72772;SHT30;60894;42.544;1.516;2022-07-24T08:31:28;24.53;40.53
72772;SHT30;60894;42.544;1.516;2022-07-24T08:33:55;24.70;40.97
72772;SHT30;60894;42.544;1.516;2022-07-24T08:36:22;24.90;39.71
72772;SHT30;60894;42.544;1.516;2022-07-24T08:38:49;25.08;39.14
72772;SHT30;60894;42.544;1.516;2022-07-24T08:41:17;25.12;39.99
72772;SHT30;60894;42.544;1.516;2022-07-24T08:43:44;25.28;36.82
72772;SHT30;60894;42.544;1.516;2022-07-24T08:46:14;25.43;38.24
72772;SHT30;60894;42.544;1.516;2022-07-24T08:48:44;25.59;36.74
72772;SHT30;60894;42.544;1.516;2022-07-24T08:51:12;25.77;36.07
72772;SHT30;60894;42.544;1.516;2022-07-24T08:53:40;25.97;34.14
72772;SHT30;60894;42.544;1.516;2022-07-24T08:56:07;26.12;33.32
72772;SHT30;60894;42.544;1.516;2022-07-24T08:58:36;26.28;32.67
72772;SHT30;60894;42.544;1.516;2022-07-24T09:01:04;26.48;33.09
72772;SHT30;60894;42.544;1.516;2022-07-24T09:03:38;26.64;32.47
72772;SHT30;60894;42.544;1.516;2022-07-24T09:06:08;26.79;30.85
72772;SHT30;60894;42.544;1.516;2022-07-24T09:08:35;27.00;30.58
72772;SHT30;60894;42.544;1.516;2022-07-24T09:11:03;27.23;29.29
72772;SHT30;60894;42.544;1.516;2022-07-24T09:13:32;27.36;29.78
72772;SHT30;60894;42.544;1.516;2022-07-24T09:16:17;27.54;29.01
72772;SHT30;60894;42.544;1.516;2022-07-24T09:18:48;27.65;28.48
72772;SHT30;60894;42.544;1.516;2022-07-24T09:21:17;27.80;28.72
72772;SHT30;60894;42.544;1.516;2022-07-24T09:23:49;28.02;28.14
72772;SHT30;60894;42.544;1.516;2022-07-24T09:26:16;28.09;27.79
72772;SHT30;60894;42.544;1.516;2022-07-24T09:28:48;28.14;27.51
72772;SHT30;60894;42.544;1.516;2022-07-24T09:31:15;28.25;26.77
72772;SHT30;60894;42.544;1.516;2022-07-24T09:33:42;28.44;25.86
72772;SHT30;60894;42.544;1.516;2022-07-24T09:36:13;28.57;25.52
72772;SHT30;60894;42.544;1.516;2022-07-24T09:38:47;28.72;25.91
72772;SHT30;60894;42.544;1.516;2022-07-24T09:41:21;28.87;25.87
72772;SHT30;60894;42.544;1.516;2022-07-24T09:43:57;29.00;25.54
72772;SHT30;60894;42.544;1.516;2022-07-24T09:46:25;29.21;25.59
72772;SHT30;60894;42.544;1.516;2022-07-24T09:48:57;29.34;25.27
72772;SHT30;60894;42.544;1.516;2022-07-24T09:51:25;29.38;25.11
72772;SHT30;60894;42.544;1.516;2022-07-24T09:53:55;29.45;24.92
72772;SHT30;60894;42.544;1.516;2022-07-24T09:56:26;29.57;24.84
72772;SHT30;60894;42.544;1.516;2022-07-24T09:58:56;29.62;24.63
72772;SHT30;60894;42.544;1.516;2022-07-24T10:01:26;29.82;24.81
72772;SHT30;60894;42.544;1.516;2022-07-24T10:03:54;29.78;24.62
72772;SHT30;60894;42.544;1.516;2022-07-24T10:06:23;29.95;24.69
72772;SHT30;60894;42.544;1.516;2022-07-24T10:08:51;30.10;25.06
72772;SHT30;60894;42.544;1.516;2022-07-24T10:11:20;30.08;24.95
72772;SHT30;60894;42.544;1.516;2022-07-24T10:13:47;30.15;24.94
72772;SHT30;60894;42.544;1.516;2022-07-24T10:16:29;30.20;24.85
72772;SHT30;60894;42.544;1.516;2022-07-24T10:18:58;30.16;25.24
72772;SHT30;60894;42.544;1.516;2022-07-24T10:21:27;30.22;25.48
72772;SHT30;60894;42.544;1.516;2022-07-24T10:27:05;30.43;25.36
72772;SHT30;60894;42.544;1.516;2022-07-24T10:29:39;30.52;25.19
72772;SHT30;60894;42.544;1.516;2022-07-24T10:32:06;30.66;25.06
72772;SHT30;60894;42.544;1.516;2022-07-24T10:34:41;30.70;24.36
72772;SHT30;60894;42.544;1.516;2022-07-24T10:37:15;30.76;24.67
72772;SHT30;60894;42.544;1.516;2022-07-24T10:39:53;30.97;24.67
72772;SHT30;60894;42.544;1.516;2022-07-24T10:42:22;30.95;24.83
72772;SHT30;60894;42.544;1.516;2022-07-24T10:45:14;30.97;24.65
72772;SHT30;60894;42.544;1.516;2022-07-24T10:47:42;31.16;24.36
72772;SHT30;60894;42.544;1.516;2022-07-24T10:50:09;31.19;24.29
72772;SHT30;60894;42.544;1.516;2022-07-24T10:52:36;31.26;24.06
72772;SHT30;60894;42.544;1.516;2022-07-24T10:55:25;31.25;24.13
72772;SHT30;60894;42.544;1.516;2022-07-24T10:57:58;31.39;23.88
72772;SHT30;60894;42.544;1.516;2022-07-24T11:00:31;31.52;23.97
72772;SHT30;60894;42.544;1.516;2022-07-24T11:03:01;31.72;23.79
72772;SHT30;60894;42.544;1.516;2022-07-24T11:05:30;31.66;23.32
72772;SHT30;60894;42.544;1.516;2022-07-24T11:08:25;31.87;22.96
72772;SHT30;60894;42.544;1.516;2022-07-24T11:10:57;31.80;23.15
72772;SHT30;60894;42.544;1.516;2022-07-24T11:13:43;31.90;23.22
72772;SHT30;60894;42.544;1.516;2022-07-24T11:16:29;32.06;22.87
72772;SHT30;60894;42.544;1.516;2022-07-24T11:19:28;32.13;22.76
72772;SHT30;60894;42.544;1.516;2022-07-24T11:22:06;32.12;22.16
72772;SHT30;60894;42.544;1.516;2022-07-24T11:24:33;32.14;21.97
72772;SHT30;60894;42.544;1.516;2022-07-24T11:27:05;32.48;22.26
72772;SHT30;60894;42.544;1.516;2022-07-24T11:29:36;32.33;22.34
72772;SHT30;60894;42.544;1.516;2022-07-24T11:32:05;32.37;22.15
72772;SHT30;60894;42.544;1.516;2022-07-24T11:34:35;32.40;22.21
72772;SHT30;60894;42.544;1.516;2022-07-24T11:37:03;32.54;21.70
72772;SHT30;60894;42.544;1.516;2022-07-24T11:39:33;32.67;21.88
72772;SHT30;60894;42.544;1.516;2022-07-24T11:42:01;32.75;22.04
72772;SHT30;60894;42.544;1.516;2022-07-24T11:44:31;32.70;22.04
72772;SHT30;60894;42.544;1.516;2022-07-24T11:47:05;32.95;21.94
72772;SHT30;60894;42.544;1.516;2022-07-24T11:49:39;32.86;22.31
72772;SHT30;60894;42.544;1.516;2022-07-24T11:52:06;32.88;22.24
72772;SHT30;60894;42.544;1.516;2022-07-24T11:54:33;32.81;22.30
72772;SHT30;60894;42.544;1.516;2022-07-24T11:57:00;32.92;22.82
72772;SHT30;60894;42.544;1.516;2022-07-24T11:59:29;32.67;22.97
72772;SHT30;60894;42.544;1.516;2022-07-24T12:01:56;32.92;22.56
72772;SHT30;60894;42.544;1.516;2022-07-24T12:04:30;32.95;22.72
72772;SHT30;60894;42.544;1.516;2022-07-24T12:06:57;33.08;22.76
72772;SHT30;60894;42.544;1.516;2022-07-24T12:09:23;32.96;22.85
72772;SHT30;60894;42.544;1.516;2022-07-24T12:11:50;32.84;23.11
72772;SHT30;60894;42.544;1.516;2022-07-24T12:14:19;32.85;23.31
72772;SHT30;60894;42.544;1.516;2022-07-24T12:16:51;32.92;23.12
72772;SHT30;60894;42.544;1.516;2022-07-24T12:19:20;32.79;23.25
72772;SHT30;60894;42.544;1.516;2022-07-24T12:21:50;33.02;22.96
72772;SHT30;60894;42.544;1.516;2022-07-24T12:24:18;33.06;23.35
72772;SHT30;60894;42.544;1.516;2022-07-24T12:26:49;33.29;23.18
72772;SHT30;60894;42.544;1.516;2022-07-24T12:29:17;32.74;24.16
72772;SHT30;60894;42.544;1.516;2022-07-24T12:31:44;33.05;24.04
72772;SHT30;60894;42.544;1.516;2022-07-24T12:34:10;33.36;23.76
72772;SHT30;60894;42.544;1.516;2022-07-24T12:36:37;33.41;23.18
72772;SHT30;60894;42.544;1.516;2022-07-24T12:39:07;33.57;23.02
72772;SHT30;60894;42.544;1.516;2022-07-24T12:41:45;33.64;22.81
72772;SHT30;60894;42.544;1.516;2022-07-24T12:44:13;33.93;22.30
72772;SHT30;60894;42.544;1.516;2022-07-24T12:46:41;34.01;22.31
72772;SHT30;60894;42.544;1.516;2022-07-24T12:49:11;34.07;22.35
72772;SHT30;60894;42.544;1.516;2022-07-24T12:51:46;34.00;21.41
72772;SHT30;60894;42.544;1.516;2022-07-24T12:54:19;34.18;21.75
72772;SHT30;60894;42.544;1.516;2022-07-24T12:56:48;33.83;21.58
72772;SHT30;60894;42.544;1.516;2022-07-24T12:59:25;33.62;21.88
72772;SHT30;60894;42.544;1.516;2022-07-24T13:01:55;33.94;22.07
72772;SHT30;60894;42.544;1.516;2022-07-24T13:04:23;34.08;21.25
72772;SHT30;60894;42.544;1.516;2022-07-24T13:06:52;33.77;20.99
72772;SHT30;60894;42.544;1.516;2022-07-24T13:09:24;33.81;20.67
72772;SHT30;60894;42.544;1.516;2022-07-24T13:11:52;34.04;19.97
72772;SHT30;60894;42.544;1.516;2022-07-24T13:14:21;34.08;20.04
72772;SHT30;60894;42.544;1.516;2022-07-24T13:16:50;33.84;20.22
72772;SHT30;60894;42.544;1.516;2022-07-24T13:19:18;34.04;19.68
72772;SHT30;60894;42.544;1.516;2022-07-24T13:21:47;34.10;18.86
72772;SHT30;60894;42.544;1.516;2022-07-24T13:24:15;34.04;19.11
72772;SHT30;60894;42.544;1.516;2022-07-24T13:26:44;33.96;19.18
72772;SHT30;60894;42.544;1.516;2022-07-24T13:29:11;33.78;18.37
72772;SHT30;60894;42.544;1.516;2022-07-24T13:31:39;33.80;18.22
72772;SHT30;60894;42.544;1.516;2022-07-24T13:34:06;34.23;18.10
72772;SHT30;60894;42.544;1.516;2022-07-24T13:36:33;34.25;18.22
72772;SHT30;60894;42.544;1.516;2022-07-24T13:39:01;34.37;17.94
72772;SHT30;60894;42.544;1.516;2022-07-24T13:41:27;34.59;18.10
72772;SHT30;60894;42.544;1.516;2022-07-24T13:43:56;34.05;18.10
72772;SHT30;60894;42.544;1.516;2022-07-24T13:46:22;34.17;18.28
72772;SHT30;60894;42.544;1.516;2022-07-24T13:48:50;34.51;18.13
72772;SHT30;60894;42.544;1.516;2022-07-24T13:51:18;34.65;17.93
72772;SHT30;60894;42.544;1.516;2022-07-24T13:53:45;34.81;17.10
72772;SHT30;60894;42.544;1.516;2022-07-24T13:56:12;34.78;17.34
72772;SHT30;60894;42.544;1.516;2022-07-24T13:58:39;34.69;17.35
72772;SHT30;60894;42.544;1.516;2022-07-24T14:01:09;34.84;17.10
72772;SHT30;60894;42.544;1.516;2022-07-24T14:03:38;35.05;16.76
72772;SHT30;60894;42.544;1.516;2022-07-24T14:06:07;34.69;16.49
72772;SHT30;60894;42.544;1.516;2022-07-24T14:08:35;34.52;16.74
72772;SHT30;60894;42.544;1.516;2022-07-24T14:11:02;34.79;16.89
72772;SHT30;60894;42.544;1.516;2022-07-24T14:13:29;34.88;16.22
72772;SHT30;60894;42.544;1.516;2022-07-24T14:15:56;34.78;16.47
72772;SHT30;60894;42.544;1.516;2022-07-24T14:18:24;35.40;16.38
72772;SHT30;60894;42.544;1.516;2022-07-24T14:20:51;35.37;15.55
72772;SHT30;60894;42.544;1.516;2022-07-24T14:23:18;34.43;16.20
72772;SHT30;60894;42.544;1.516;2022-07-24T14:25:45;34.62;16.33
72772;SHT30;60894;42.544;1.516;2022-07-24T14:28:12;34.99;15.88
72772;SHT30;60894;42.544;1.516;2022-07-24T14:30:39;34.75;16.23
72772;SHT30;60894;42.544;1.516;2022-07-24T14:33:07;34.64;16.36
72772;SHT30;60894;42.544;1.516;2022-07-24T14:35:35;34.28;16.65
72772;SHT30;60894;42.544;1.516;2022-07-24T14:38:02;34.54;16.77
72772;SHT30;60894;42.544;1.516;2022-07-24T14:40:29;34.81;16.40
72772;SHT30;60894;42.544;1.516;2022-07-24T14:42:56;34.96;16.31
72772;SHT30;60894;42.544;1.516;2022-07-24T14:45:23;34.82;16.13
72772;SHT30;60894;42.544;1.516;2022-07-24T14:47:50;34.76;16.47
72772;SHT30;60894;42.544;1.516;2022-07-24T14:50:17;34.49;16.54
72772;SHT30;60894;42.544;1.516;2022-07-24T14:52:45;34.29;16.96
72772;SHT30;60894;42.544;1.516;2022-07-24T14:55:12;34.51;16.95
72772;SHT30;60894;42.544;1.516;2022-07-24T14:57:39;34.84;16.81
72772;SHT30;60894;42.544;1.516;2022-07-24T15:00:07;35.29;16.80
72772;SHT30;60894;42.544;1.516;2022-07-24T15:02:34;35.63;16.48
72772;SHT30;60894;42.544;1.516;2022-07-24T15:05:01;35.64;16.50
72772;SHT30;60894;42.544;1.516;2022-07-24T15:07:28;35.39;16.44
72772;SHT30;60894;42.544;1.516;2022-07-24T15:09:56;35.39;16.65
72772;SHT30;60894;42.544;1.516;2022-07-24T15:12:23;35.70;16.23
72772;SHT30;60894;42.544;1.516;2022-07-24T15:14:50;34.95;16.45
72772;SHT30;60894;42.544;1.516;2022-07-24T15:17:17;34.71;16.91
72772;SHT30;60894;42.544;1.516;2022-07-24T15:19:44;34.89;16.85
72772;SHT30;60894;42.544;1.516;2022-07-24T15:22:10;35.30;16.94
72772;SHT30;60894;42.544;1.516;2022-07-24T15:24:37;35.17;16.81
72772;SHT30;60894;42.544;1.516;2022-07-24T15:27:05;35.13;16.47
72772;SHT30;60894;42.544;1.516;2022-07-24T15:29:32;35.06;16.96
72772;SHT30;60894;42.544;1.516;2022-07-24T15:31:59;35.23;16.94
72772;SHT30;60894;42.544;1.516;2022-07-24T15:34:26;35.03;17.23
72772;SHT30;60894;42.544;1.516;2022-07-24T15:36:53;34.91;17.26
72772;SHT30;60894;42.544;1.516;2022-07-24T15:39:20;34.74;17.79